Saturday, September 23, 2017, 1:35 AM EDT

KTHV, York Airport

Location: Spring Grove, PA, United States Lat: 39.917
Local Time: 1:35 AM EDT ( 5:35 GMT) Lon: -76.883
Time Zone: US/Eastern Elev: 478 ft

Show me the last for .
Show Decoded

2017-09-23 00:53 METAR KTHV 230453Z AUTO 00000KT 10SM CLR 12/12 A3005 RMK AO2 SLP177 T01170117
                 402830117 =
2017-09-22 23:53 METAR KTHV 230353Z AUTO 00000KT 10SM CLR 13/13 A3005 RMK AO2 SLP176 T01330133 =
2017-09-22 22:53 METAR KTHV 230253Z AUTO 00000KT 10SM CLR 14/14 A3005 RMK AO2 SLP175 T01390139
                 51014 =
2017-09-22 21:53 METAR KTHV 230153Z AUTO 00000KT 10SM CLR 15/15 A3003 RMK AO2 SLP171 T01500150 =
2017-09-22 20:53 METAR KTHV 230053Z AUTO 00000KT 10SM CLR 16/16 A3002 RMK AO2 SLP167 T01610161 =
2017-09-22 19:53 METAR KTHV 222353Z AUTO 00000KT 10SM CLR 18/17 A3001 RMK AO2 SLP162 T01830172
                 10283 20183 55001 =
2017-09-22 18:53 METAR KTHV 222253Z AUTO 00000KT 10SM CLR 22/19 A3000 RMK AO2 SLP159 T02170189 =
2017-09-22 17:53 METAR KTHV 222153Z AUTO 01005KT 10SM CLR 27/15 A3001 RMK AO2 SLP160 T02720150 =
2017-09-22 16:53 METAR KTHV 222053Z AUTO 35009KT 10SM CLR 28/16 A3001 RMK AO2 SLP162 T02780156
                 56013 =
2017-09-22 15:53 METAR KTHV 221953Z AUTO 36008KT 10SM CLR 28/16 A3002 RMK AO2 SLP164 T02780156 =
2017-09-22 14:53 METAR KTHV 221853Z AUTO 01008KT 10SM CLR 27/16 A3003 RMK AO2 SLP169 T02670156 =
2017-09-22 13:53 METAR KTHV 221753Z AUTO 01008KT 10SM CLR 27/18 A3005 RMK AO2 SLP174 T02670178
                 10267 20150 58016 =
2017-09-22 12:53 METAR KTHV 221653Z AUTO 30004KT 10SM CLR 24/19 A3007 RMK AO2 SLP181 T02440194 =
2017-09-22 11:53 METAR KTHV 221553Z AUTO 00000KT 10SM CLR 23/19 A3008 RMK AO2 SLP186 T02280194 =
2017-09-22 10:53 METAR KTHV 221453Z AUTO 36003KT 10SM CLR 22/19 A3010 RMK AO2 SLP191 T02220194
                 51006 =
2017-09-22 09:53 METAR KTHV 221353Z AUTO 00000KT 10SM CLR 20/19 A3010 RMK AO2 SLP191 T02000189 =
2017-09-22 08:53 METAR KTHV 221253Z AUTO 00000KT 9SM CLR 18/18 A3009 RMK AO2 SLP191 T01780178 =
2017-09-22 07:53 METAR KTHV 221153Z AUTO 29003KT 6SM BR CLR 15/15 A3008 RMK AO2 SLP185 T01500150
                 10172 20144 51006 =
2017-09-22 06:53 METAR KTHV 221053Z AUTO 00000KT 8SM CLR 14/14 A3008 RMK AO2 SLP186 T01440144 =
2017-09-22 05:53 METAR KTHV 220953Z AUTO 00000KT 6SM BR CLR 15/15 A3007 RMK AO2 SLP181 T01500150
                 =
2017-09-22 04:53 METAR KTHV 220853Z AUTO 00000KT 7SM CLR 15/15 A3006 RMK AO2 SLP178 T01500150
                 55001 =
2017-09-22 03:53 METAR KTHV 220753Z AUTO 00000KT 9SM CLR 16/16 A3006 RMK AO2 SLP177 T01610161 =
2017-09-22 02:53 METAR KTHV 220653Z AUTO 28003KT 10SM CLR 17/17 A3005 RMK AO2 SLP175 T01670167 =
2017-09-22 01:53 METAR KTHV 220553Z AUTO 00000KT 10SM CLR 17/17 A3006 RMK AO2 SLP178 T01720172
                 10206 20167 58001 =

Support USWX by starting your Amazon purchase here.